Time;durP1;ratioP1;P1;durP2;ratioP2;P2;SDS_P1;SDS_P2;PMS_P1;PMS_P2;Temp;Humidity;BMP_temperature;BMP_pressure;BME280_temperature;BME280_humidity;BME280_pressure;Samples;Min_cycle;Max_cycle;Signal;HPM_P1;HPM_P2
2022/09/19 00:02:15;;;;;;;5.07;2.40;;;12.80;96.10;;;;;;5095883;28;20211;-89
2022/09/19 00:04:53;;;;;;;6.97;2.33;;;12.80;96.40;;;;;;5095692;28;20196;-89
2022/09/19 00:07:21;;;;;;;5.97;2.70;;;12.70;96.30;;;;;;5098553;28;20183;-90
2022/09/19 00:09:52;;;;;;;6.67;2.67;;;12.70;96.80;;;;;;5098553;28;20165;-90
2022/09/19 00:12:19;;;;;;;7.40;2.83;;;12.80;96.90;;;;;;5098165;28;20174;-91
2022/09/19 00:15:01;;;;;;;9.17;2.70;;;12.50;97.10;;;;;;5110855;28;20178;-88
2022/09/19 00:17:29;;;;;;;7.33;2.30;;;12.40;97.70;;;;;;5112811;28;20254;-91
2022/09/19 00:19:58;;;;;;;9.10;2.57;;;12.40;98.30;;;;;;5100893;28;20190;-92
2022/09/19 00:22:38;;;;;;;7.80;2.87;;;12.40;99.20;;;;;;5098174;28;20187;-92
2022/09/19 00:25:21;;;;;;;8.57;2.20;;;12.30;99.20;;;;;;5097357;28;20620;-94
2022/09/19 00:27:52;;;;;;;7.87;2.60;;;12.30;99.90;;;;;;5096304;28;20176;-93
2022/09/19 00:30:27;;;;;;;8.20;2.40;;;12.60;99.90;;;;;;5097550;28;20278;-93
2022/09/19 00:32:54;;;;;;;6.23;2.60;;;12.30;99.90;;;;;;5102654;28;20187;-87
2022/09/19 00:35:22;;;;;;;7.67;2.50;;;12.30;99.90;;;;;;5119227;28;20177;-92
2022/09/19 00:37:58;;;;;;;11.93;2.77;;;12.30;99.80;;;;;;5107922;28;20254;-92
2022/09/19 00:40:33;;;;;;;7.70;2.87;;;12.30;99.80;;;;;;5100242;28;20218;-92
2022/09/19 00:43:12;;;;;;;7.73;2.43;;;12.30;99.80;;;;;;5096534;28;20680;-93
2022/09/19 00:45:51;;;;;;;6.77;3.53;;;12.30;99.80;;;;;;5096281;28;20176;-94
2022/09/19 00:48:24;;;;;;;8.60;2.90;;;12.30;99.80;;;;;;5096193;28;20220;-91
2022/09/19 00:50:53;;;;;;;11.00;3.00;;;12.20;99.90;;;;;;5095643;28;20192;-93
2022/09/19 00:53:30;;;;;;;6.97;2.50;;;12.20;99.90;;;;;;5093626;28;20187;-93
2022/09/19 00:56:01;;;;;;;7.57;2.40;;;12.20;99.70;;;;;;5094871;28;20189;-91
2022/09/19 00:58:47;;;;;;;10.07;2.47;;;12.30;99.10;;;;;;5095609;28;20226;-92
2022/09/19 01:01:15;;;;;;;7.10;2.70;;;12.30;98.60;;;;;;5094528;28;20213;-93
2022/09/19 01:03:50;;;;;;;7.73;2.57;;;12.30;98.80;;;;;;5095207;28;21060;-93
2022/09/19 01:06:43;;;;;;;9.37;2.73;;;12.40;99.10;;;;;;5096519;28;20172;-94
2022/09/19 01:09:24;;;;;;;9.53;3.07;;;12.50;98.50;;;;;;5095708;28;20175;-94
2022/09/19 01:12:01;;;;;;;9.17;2.97;;;12.70;97.60;;;;;;5095371;28;20183;-94
2022/09/19 01:14:30;;;;;;;6.30;2.40;;;12.60;96.50;;;;;;5094764;28;20171;-93
2022/09/19 01:17:08;;;;;;;8.43;3.07;;;12.40;96.90;;;;;;5094920;28;20177;-94
2022/09/19 01:20:12;;;;;;;7.77;2.73;;;12.10;98.30;;;;;;5096037;28;20177;-94
2022/09/19 01:23:24;;;;;;;7.23;2.37;;;12.00;99.90;;;;;;5096575;28;20639;-93
2022/09/19 01:26:18;;;;;;;6.97;2.17;;;11.90;99.90;;;;;;5083358;28;20620;-94
2022/09/19 01:29:07;;;;;;;7.73;2.40;;;11.80;99.90;;;;;;5095233;28;20259;-89
2022/09/19 01:31:38;;;;;;;9.43;3.07;;;11.80;99.90;;;;;;5095551;28;20172;-93
2022/09/19 01:34:17;;;;;;;8.23;3.00;;;11.80;99.90;;;;;;5095077;28;20538;-93
2022/09/19 01:37:07;;;;;;;8.50;2.80;;;11.90;99.90;;;;;;5095082;28;20175;-93
2022/09/19 01:39:39;;;;;;;10.67;2.70;;;12.10;99.90;;;;;;5095035;28;20167;-93
2022/09/19 01:42:16;;;;;;;6.27;2.87;;;12.10;99.10;;;;;;5094380;28;20345;-93
2022/09/19 01:44:48;;;;;;;9.67;2.40;;;12.20;99.80;;;;;;5095208;28;20201;-94
2022/09/19 01:47:58;;;;;;;8.70;2.63;;;12.10;99.70;;;;;;5094104;28;20252;-93
2022/09/19 01:50:45;;;;;;;7.20;2.47;;;12.20;99.90;;;;;;5072909;28;20635;-91
2022/09/19 01:53:34;;;;;;;7.80;2.73;;;12.20;99.80;;;;;;5094295;28;20727;-92
2022/09/19 01:56:28;;;;;;;8.77;2.53;;;12.40;99.90;;;;;;5094312;28;20176;-90
2022/09/19 01:59:31;;;;;;;9.47;2.97;;;12.30;99.30;;;;;;5093647;28;20180;-91
2022/09/19 02:02:23;;;;;;;9.40;2.87;;;12.30;99.40;;;;;;5096924;28;20548;-91
2022/09/19 02:05:19;;;;;;;7.90;2.23;;;12.20;98.80;;;;;;5116985;28;20192;-91
2022/09/19 02:11:23;;;;;;;6.60;2.50;;;12.00;99.80;;;;;;5088574;28;20312;-93
2022/09/19 02:13:58;;;;;;;6.53;2.37;;;12.00;99.30;;;;;;5095847;28;20217;-93
2022/09/19 02:20:37;;;;;;;5.00;1.97;;;12.00;98.10;;;;;;5098615;28;20182;-91
2022/09/19 02:23:18;;;;;;;8.67;2.30;;;12.00;97.60;;;;;;5090887;28;20545;-93
2022/09/19 02:26:20;;;;;;;12.03;2.40;;;11.80;98.20;;;;;;5093009;28;20176;-93
2022/09/19 02:28:52;;;;;;;8.70;2.30;;;11.80;98.20;;;;;;5093568;28;20262;-92
2022/09/19 02:31:24;;;;;;;9.17;2.20;;;11.70;99.00;;;;;;5094233;28;20267;-92
2022/09/19 02:33:54;;;;;;;8.77;2.50;;;11.80;99.70;;;;;;5094645;28;20179;-93
2022/09/19 02:36:35;;;;;;;8.00;2.57;;;11.60;99.90;;;;;;5104175;28;20155;-93
2022/09/19 02:39:18;;;;;;;10.60;2.37;;;11.50;99.90;;;;;;5118435;28;20180;-93
2022/09/19 02:42:08;;;;;;;6.20;2.43;;;11.60;99.90;;;;;;5104251;28;20219;-91
2022/09/19 02:45:02;;;;;;;5.60;2.30;;;11.70;99.90;;;;;;5100484;28;20175;-90
2022/09/19 02:48:20;;;;;;;8.27;2.47;;;11.70;99.90;;;;;;5100605;28;20207;-93
2022/09/19 02:51:41;;;;;;;10.40;2.63;;;12.00;99.90;;;;;;5113022;28;20183;-90
2022/09/19 02:54:21;;;;;;;7.20;2.40;;;12.00;99.40;;;;;;5118035;28;20159;-89
2022/09/19 02:56:58;;;;;;;8.07;2.00;;;12.00;99.00;;;;;;5118063;28;20187;-89
2022/09/19 02:59:30;;;;;;;7.47;2.10;;;12.00;98.60;;;;;;5114480;28;20200;-94
2022/09/19 03:02:26;;;;;;;7.50;2.40;;;12.10;98.20;;;;;;5098236;28;20258;-93
2022/09/19 03:05:37;;;;;;;7.00;2.47;;;12.00;97.40;;;;;;5110114;28;20246;-91
2022/09/19 03:08:24;;;;;;;9.23;2.60;;;12.00;97.10;;;;;;5117479;28;20194;-93
2022/09/19 03:11:40;;;;;;;9.73;2.37;;;12.20;93.00;;;;;;5108985;28;20199;-93
2022/09/19 03:21:11;;;;;;;5.97;2.80;;;11.40;97.40;;;;;;5099311;28;20202;-90
2022/09/19 03:23:41;;;;;;;8.17;2.93;;;11.30;99.90;;;;;;5097318;28;20531;-89
2022/09/19 03:29:10;;;;;;;9.93;2.47;;;11.40;99.90;;;;;;5099457;28;20244;-93
2022/09/19 03:31:40;;;;;;;8.67;2.60;;;11.50;99.90;;;;;;5097667;28;20263;-94
2022/09/19 03:34:11;;;;;;;7.13;2.50;;;11.60;99.90;;;;;;5081286;28;20203;-92
2022/09/19 03:36:37;;;;;;;7.47;2.60;;;11.60;99.90;;;;;;5097957;28;20308;-91
2022/09/19 03:39:06;;;;;;;7.07;2.40;;;11.70;99.90;;;;;;5097137;28;20178;-93
2022/09/19 03:41:32;;;;;;;8.77;2.43;;;12.10;99.70;;;;;;5097377;28;20218;-92
2022/09/19 03:44:16;;;;;;;8.20;2.63;;;11.90;98.10;;;;;;5099780;28;20615;-92
2022/09/19 03:46:46;;;;;;;9.97;2.60;;;11.70;97.70;;;;;;5096820;28;20176;-90
2022/09/19 03:49:49;;;;;;;9.73;2.80;;;11.60;98.10;;;;;;5095724;28;20644;-90
2022/09/19 03:52:41;;;;;;;6.27;2.10;;;11.50;98.50;;;;;;5096696;28;20179;-91
2022/09/19 03:55:09;;;;;;;6.23;2.40;;;11.50;98.70;;;;;;5097784;28;20217;-93
2022/09/19 03:57:41;;;;;;;8.17;2.43;;;11.60;99.00;;;;;;5097942;28;20266;-90
2022/09/19 04:00:24;;;;;;;5.83;2.13;;;11.70;98.50;;;;;;5097026;28;20167;-92
2022/09/19 04:02:56;;;;;;;9.70;2.83;;;11.70;97.50;;;;;;5096601;28;20260;-90
2022/09/19 04:05:32;;;;;;;5.97;2.40;;;11.70;97.30;;;;;;5102480;28;20172;-91
2022/09/19 04:08:03;;;;;;;6.70;2.40;;;11.50;97.20;;;;;;5101045;28;20179;-90
2022/09/19 04:10:34;;;;;;;7.97;2.50;;;11.50;98.10;;;;;;5098153;28;20191;-91
2022/09/19 04:13:07;;;;;;;9.33;2.80;;;11.40;98.50;;;;;;5103456;28;20172;-89
2022/09/19 04:15:40;;;;;;;8.23;3.03;;;11.30;98.80;;;;;;5100839;28;20164;-93
2022/09/19 04:18:06;;;;;;;8.23;3.17;;;11.50;97.30;;;;;;5098608;28;20258;-91
2022/09/19 04:20:38;;;;;;;9.87;2.80;;;11.30;96.90;;;;;;5080655;28;20200;-92
2022/09/19 04:23:07;;;;;;;10.33;3.00;;;11.30;97.80;;;;;;5109711;28;20198;-88
2022/09/19 04:25:35;;;;;;;10.63;2.60;;;11.40;97.70;;;;;;5119290;28;20163;-92
2022/09/19 04:28:10;;;;;;;7.27;2.80;;;11.50;97.20;;;;;;5114550;28;20167;-89
2022/09/19 04:30:40;;;;;;;7.33;3.00;;;11.40;97.30;;;;;;5118284;28;20193;-88
2022/09/19 04:33:10;;;;;;;10.80;3.13;;;11.50;97.70;;;;;;5118546;28;20159;-89
2022/09/19 04:35:47;;;;;;;5.00;2.57;;;11.50;97.50;;;;;;5107974;28;20253;-93
2022/09/19 04:38:20;;;;;;;6.57;2.63;;;11.40;97.20;;;;;;5099589;28;20213;-93
2022/09/19 04:40:56;;;;;;;8.67;2.93;;;11.40;97.20;;;;;;5102206;28;20206;-90
2022/09/19 04:43:48;;;;;;;8.70;3.20;;;11.20;98.50;;;;;;5101260;28;20180;-91
2022/09/19 04:46:16;;;;;;;9.37;3.30;;;11.20;98.10;;;;;;5097022;28;20191;-89
2022/09/19 04:48:43;;;;;;;5.93;2.50;;;11.50;98.40;;;;;;5096378;28;20258;-93
2022/09/19 04:51:10;;;;;;;11.63;3.23;;;11.30;98.40;;;;;;5097609;28;20582;-91
2022/09/19 04:53:38;;;;;;;6.33;2.27;;;11.30;98.10;;;;;;5097037;28;20176;-90
2022/09/19 04:56:27;;;;;;;9.73;2.90;;;11.20;97.40;;;;;;5096869;28;20509;-92
2022/09/19 04:58:54;;;;;;;9.13;2.80;;;11.10;98.60;;;;;;5098480;28;20578;-90
2022/09/19 05:01:19;;;;;;;7.50;3.20;;;11.10;99.70;;;;;;5097143;28;20249;-90
2022/09/19 05:03:48;;;;;;;9.60;2.90;;;11.10;99.30;;;;;;5096068;28;20164;-90
2022/09/19 05:06:15;;;;;;;10.03;3.23;;;11.20;99.70;;;;;;5095690;28;20516;-91
2022/09/19 05:08:45;;;;;;;13.03;3.47;;;11.30;99.30;;;;;;5079120;28;20207;-90
2022/09/19 05:11:13;;;;;;;12.10;3.23;;;11.40;97.20;;;;;;5096623;28;20195;-90
2022/09/19 05:13:53;;;;;;;8.97;2.83;;;11.30;97.00;;;;;;5095936;28;20172;-90
2022/09/19 05:16:20;;;;;;;6.73;2.53;;;11.20;98.10;;;;;;5095947;28;20178;-91
2022/09/19 05:18:46;;;;;;;12.57;2.90;;;11.20;98.80;;;;;;5095615;28;20654;-92
2022/09/19 05:21:14;;;;;;;9.80;3.30;;;11.10;99.20;;;;;;5095065;28;20326;-91
2022/09/19 05:23:47;;;;;;;8.67;2.63;;;11.20;99.80;;;;;;5098355;28;20277;-91
2022/09/19 05:26:17;;;;;;;10.80;3.20;;;11.30;99.70;;;;;;5101081;28;20190;-91
2022/09/19 05:28:47;;;;;;;7.40;2.97;;;11.20;99.20;;;;;;5097800;28;20172;-92
2022/09/19 05:31:16;;;;;;;9.63;3.00;;;11.10;99.40;;;;;;5082911;28;20616;-93
2022/09/19 05:33:46;;;;;;;8.23;3.13;;;11.10;99.80;;;;;;5098618;28;20164;-94
2022/09/19 05:36:34;;;;;;;7.20;2.50;;;11.20;99.90;;;;;;5094871;28;20256;-91
2022/09/19 05:39:03;;;;;;;9.70;3.03;;;11.00;99.90;;;;;;5081422;28;20185;-92
2022/09/19 05:41:40;;;;;;;7.10;3.13;;;11.00;99.90;;;;;;5078336;28;20552;-93
2022/09/19 05:44:07;;;;;;;10.57;3.43;;;11.20;99.90;;;;;;5078528;28;20206;-92
2022/09/19 05:46:38;;;;;;;8.13;2.67;;;11.20;98.30;;;;;;5075718;28;20608;-93
2022/09/19 05:49:06;;;;;;;6.63;2.90;;;11.30;97.00;;;;;;5077487;28;20652;-90
2022/09/19 05:51:33;;;;;;;10.47;3.53;;;11.20;97.20;;;;;;5072468;28;20179;-89
2022/09/19 05:54:02;;;;;;;11.83;3.80;;;11.00;98.00;;;;;;5096220;28;20227;-88
2022/09/19 05:56:52;;;;;;;10.53;3.00;;;11.00;99.10;;;;;;5090640;28;20183;-89
2022/09/19 05:59:21;;;;;;;9.73;2.90;;;11.00;99.80;;;;;;5079509;28;20625;-88
2022/09/19 06:01:47;;;;;;;10.93;3.37;;;10.90;99.90;;;;;;5059291;28;20213;-91
2022/09/19 06:04:17;;;;;;;11.00;2.83;;;10.80;99.90;;;;;;5060456;28;20180;-90
2022/09/19 06:06:43;;;;;;;12.67;3.70;;;10.90;99.90;;;;;;5076069;28;20636;-89
2022/09/19 06:09:09;;;;;;;11.07;3.00;;;11.10;99.90;;;;;;5058058;28;20702;-90
2022/09/19 06:11:37;;;;;;;10.77;3.20;;;11.10;99.90;;;;;;5069432;28;20192;-90
2022/09/19 06:14:15;;;;;;;8.47;2.90;;;11.10;99.90;;;;;;5062224;28;20172;-89
2022/09/19 06:16:41;;;;;;;11.77;3.00;;;11.20;99.90;;;;;;5084609;28;20619;-91
2022/09/19 06:19:08;;;;;;;7.13;3.03;;;11.10;99.90;;;;;;5097278;28;20182;-91
2022/09/19 06:21:38;;;;;;;7.63;2.23;;;11.20;99.90;;;;;;5096808;28;20297;-89
2022/09/19 06:24:13;;;;;;;13.07;2.90;;;11.20;99.90;;;;;;5087492;28;20616;-90
2022/09/19 06:26:54;;;;;;;10.83;2.97;;;11.20;99.80;;;;;;5083749;28;20171;-89
2022/09/19 06:29:23;;;;;;;7.50;2.83;;;11.30;99.90;;;;;;5092727;28;20160;-89
2022/09/19 06:31:52;;;;;;;8.37;2.97;;;11.30;99.90;;;;;;5093882;28;20204;-89
2022/09/19 06:34:19;;;;;;;15.43;7.23;;;11.30;99.80;;;;;;5082060;28;20229;-89
2022/09/19 06:36:51;;;;;;;9.67;3.30;;;11.30;99.50;;;;;;5077499;28;20172;-88
2022/09/19 06:39:22;;;;;;;8.93;2.50;;;11.30;99.60;;;;;;5077752;28;20176;-89
2022/09/19 06:41:57;;;;;;;8.87;2.90;;;11.30;99.90;;;;;;5096438;28;20227;-88
2022/09/19 06:44:30;;;;;;;8.87;3.20;;;11.40;99.90;;;;;;5094623;28;20164;-89
2022/09/19 06:46:58;;;;;;;9.30;3.00;;;11.50;99.70;;;;;;5082779;28;20228;-89
2022/09/19 06:49:38;;;;;;;11.03;3.63;;;11.50;99.20;;;;;;5086251;28;20179;-88
2022/09/19 06:52:07;;;;;;;8.23;3.13;;;11.70;98.90;;;;;;5085007;28;20179;-88
2022/09/19 06:55:06;;;;;;;10.57;2.70;;;11.70;97.90;;;;;;5086893;28;20181;-88
2022/09/19 06:57:44;;;;;;;11.80;3.30;;;11.80;97.40;;;;;;5083986;28;20168;-88
2022/09/19 07:00:44;;;;;;;8.50;3.53;;;11.90;97.30;;;;;;5081620;28;20180;-89
2022/09/19 07:03:15;;;;;;;6.13;2.53;;;12.00;96.70;;;;;;5082249;28;20188;-88
2022/09/19 07:05:47;;;;;;;18.63;4.07;;;12.10;95.50;;;;;;5084053;28;20177;-88
2022/09/19 07:08:24;;;;;;;10.70;3.63;;;12.10;95.00;;;;;;5091307;28;20175;-89
2022/09/19 07:10:58;;;;;;;7.67;3.47;;;12.20;94.10;;;;;;5096861;28;20242;-89
2022/09/19 07:13:34;;;;;;;8.83;3.77;;;12.30;93.50;;;;;;5095977;28;20196;-90
2022/09/19 07:16:25;;;;;;;10.13;3.50;;;12.30;92.20;;;;;;5093027;28;20199;-89
2022/09/19 07:19:00;;;;;;;6.03;3.23;;;12.50;91.00;;;;;;5083777;28;20160;-89
2022/09/19 07:21:38;;;;;;;11.20;3.60;;;12.60;88.50;;;;;;5080475;28;20199;-88
2022/09/19 07:24:11;;;;;;;14.73;3.30;;;12.50;84.60;;;;;;5079726;28;20234;-88
2022/09/19 07:26:45;;;;;;;6.10;2.80;;;12.50;84.40;;;;;;5078755;28;20177;-90
2022/09/19 07:29:21;;;;;;;9.20;3.00;;;12.40;84.10;;;;;;5078959;28;20211;-89
2022/09/19 07:32:02;;;;;;;10.00;3.40;;;12.70;82.60;;;;;;5079537;28;20177;-89
2022/09/19 07:35:15;;;;;;;11.23;3.50;;;12.90;80.30;;;;;;5078668;28;20715;-90
2022/09/19 07:37:54;;;;;;;11.20;3.70;;;12.90;78.10;;;;;;5078967;28;20228;-89
2022/09/19 07:40:21;;;;;;;10.53;3.10;;;13.10;75.60;;;;;;5076465;28;20164;-86
2022/09/19 07:42:47;;;;;;;17.03;3.17;;;13.00;72.00;;;;;;5069924;28;20214;-88
2022/09/19 07:45:13;;;;;;;10.93;3.47;;;13.30;73.10;;;;;;5069717;28;20200;-86
2022/09/19 07:47:46;;;;;;;10.33;3.30;;;13.50;70.50;;;;;;5078885;28;20182;-86
2022/09/19 07:50:17;;;;;;;8.13;2.80;;;13.60;65.20;;;;;;5077257;28;20202;-86
2022/09/19 07:52:58;;;;;;;7.17;3.00;;;13.80;60.80;;;;;;5075525;28;20218;-87
2022/09/19 07:55:26;;;;;;;10.67;2.73;;;14.00;53.90;;;;;;5074456;28;20183;-84
2022/09/19 07:57:54;;;;;;;9.73;3.20;;;14.10;49.00;;;;;;5074348;28;20247;-85
2022/09/19 08:00:19;;;;;;;8.97;2.63;;;14.10;46.50;;;;;;5074122;28;20629;-86
2022/09/19 08:02:56;;;;;;;12.00;3.33;;;14.20;44.60;;;;;;5074170;28;20178;-87
2022/09/19 08:05:24;;;;;;;11.70;2.83;;;14.30;41.50;;;;;;5077020;28;20172;-88
2022/09/19 08:07:51;;;;;;;8.40;2.77;;;14.20;42.00;;;;;;5078545;28;20182;-88
2022/09/19 08:10:17;;;;;;;10.97;4.10;;;14.20;44.40;;;;;;5085349;28;20191;-84
2022/09/19 08:12:44;;;;;;;8.40;2.90;;;14.20;42.20;;;;;;5094422;28;20251;-85
2022/09/19 08:15:15;;;;;;;6.93;2.73;;;14.50;41.60;;;;;;5095293;28;20199;-86
2022/09/19 08:17:57;;;;;;;8.50;2.70;;;14.40;35.50;;;;;;5093731;28;20172;-86
2022/09/19 08:20:32;;;;;;;10.53;3.43;;;14.50;34.40;;;;;;5084322;28;20224;-86
2022/09/19 08:23:05;;;;;;;8.80;2.97;;;14.40;35.60;;;;;;5079939;28;20199;-87
2022/09/19 08:25:34;;;;;;;10.80;2.80;;;14.50;35.50;;;;;;5062661;28;20629;-86
2022/09/19 08:28:05;;;;;;;7.27;3.30;;;14.50;29.50;;;;;;5082033;28;20176;-87
2022/09/19 08:30:34;;;;;;;8.93;3.07;;;14.70;28.40;;;;;;5095157;28;20180;-89
2022/09/19 08:33:03;;;;;;;9.50;3.17;;;14.80;26.30;;;;;;5093545;28;20201;-86
2022/09/19 08:35:37;;;;;;;9.13;3.07;;;14.90;26.50;;;;;;5078615;28;20202;-86
2022/09/19 08:38:08;;;;;;;13.23;4.50;;;14.90;21.10;;;;;;5077468;28;20164;-87
2022/09/19 08:41:05;;;;;;;15.93;7.17;;;15.00;21.80;;;;;;5076502;28;20213;-87
2022/09/19 08:43:57;;;;;;;45.30;19.60;;;15.10;18.00;;;;;;5076619;28;20267;-87
2022/09/19 08:46:50;;;;;;;14.77;6.07;;;15.10;13.90;;;;;;5072762;28;20203;-86
2022/09/19 08:49:23;;;;;;;8.93;2.97;;;15.00;13.00;;;;;;5076910;28;20176;-87
2022/09/19 08:51:55;;;;;;;10.80;3.07;;;15.10;11.60;;;;;;5077245;28;20170;-89
2022/09/19 08:54:32;;;;;;;10.77;4.70;;;14.90;15.20;;;;;;5076663;28;20197;-87
2022/09/19 08:56:59;;;;;;;10.77;5.13;;;15.00;12.60;;;;;;5077247;28;20170;-88
2022/09/19 08:59:33;;;;;;;20.80;12.47;;;15.00;10.90;;;;;;5078606;28;20190;-88
2022/09/19 09:02:29;;;;;;;10.80;2.97;;;15.10;10.30;;;;;;5077905;28;20224;-89
2022/09/19 09:04:55;;;;;;;8.70;3.80;;;15.00;3.10;;;;;;5080362;28;20172;-86
2022/09/19 09:07:35;;;;;;;14.93;3.57;;;15.20;7.70;;;;;;5080985;28;20271;-85
2022/09/19 09:10:12;;;;;;;10.90;2.67;;;15.40;10.50;;;;;;5080722;28;20179;-87
2022/09/19 09:13:15;;;;;;;8.17;2.90;;;15.50;5.60;;;;;;5076877;28;20188;-87
2022/09/19 09:15:58;;;;;;;11.60;2.50;;;15.60;1.00;;;;;;5085734;28;20169;-86
2022/09/19 09:18:32;;;;;;;6.80;2.50;;;15.80;1.00;;;;;;5086487;28;20176;-88
2022/09/19 09:21:30;;;;;;;10.80;2.73;;;15.80;1.00;;;;;;5092341;28;20251;-87
2022/09/19 09:24:07;;;;;;;7.97;2.53;;;15.90;1.00;;;;;;5096400;28;20180;-87
2022/09/19 09:26:40;;;;;;;9.97;2.43;;;16.10;1.00;;;;;;5086591;28;20168;-84
2022/09/19 09:29:14;;;;;;;15.57;5.60;;;16.20;1.00;;;;;;5078704;28;20176;-88
2022/09/19 09:31:50;;;;;;;8.90;3.20;;;16.30;1.00;;;;;;5078607;28;20266;-87
2022/09/19 09:34:29;;;;;;;14.13;2.70;;;16.30;1.00;;;;;;5082423;28;20633;-84
2022/09/19 09:37:21;;;;;;;10.97;2.77;;;16.30;1.00;;;;;;5087547;28;20156;-85
2022/09/19 09:40:13;;;;;;;8.67;3.13;;;16.40;1.00;;;;;;5086604;28;20184;-87
2022/09/19 09:43:05;;;;;;;7.97;3.03;;;16.40;1.00;;;;;;5082320;28;20231;-85
2022/09/19 09:45:45;;;;;;;8.70;3.50;;;16.50;1.00;;;;;;5080705;28;20625;-87
2022/09/19 09:48:31;;;;;;;12.13;3.53;;;16.60;1.00;;;;;;5079357;28;20186;-87
2022/09/19 09:51:28;;;;;;;16.60;5.40;;;16.80;1.00;;;;;;5069338;28;20176;-87
2022/09/19 09:57:43;;;;;;;8.57;2.53;;;17.00;1.00;;;;;;5078065;28;20587;-85
2022/09/19 10:03:49;;;;;;;10.30;2.60;;;17.00;1.00;;;;;;5083183;28;20219;-88
2022/09/19 10:06:23;;;;;;;7.90;2.40;;;17.20;1.00;;;;;;5080754;28;20182;-86
2022/09/19 10:09:04;;;;;;;7.73;2.27;;;17.20;1.00;;;;;;5077633;28;20195;-86
2022/09/19 10:11:52;;;;;;;8.00;2.63;;;17.20;1.00;;;;;;5075464;28;20218;-87
2022/09/19 10:14:23;;;;;;;7.37;2.13;;;17.40;1.00;;;;;;5075004;28;20225;-86
2022/09/19 10:16:53;;;;;;;17.73;7.17;;;17.50;1.00;;;;;;5075388;28;20163;-88
2022/09/19 10:19:30;;;;;;;6.73;2.23;;;17.20;1.00;;;;;;5076457;28;20650;-87
2022/09/19 10:21:57;;;;;;;8.50;2.47;;;17.30;1.00;;;;;;5074918;28;20200;-88
2022/09/19 10:24:43;;;;;;;8.37;2.27;;;17.30;1.00;;;;;;5075423;28;20168;-88
2022/09/19 10:27:23;;;;;;;9.43;1.70;;;17.30;1.00;;;;;;5077642;28;20603;-85
2022/09/19 10:29:59;;;;;;;7.13;1.60;;;17.10;1.00;;;;;;5076325;28;20655;-87
2022/09/19 10:32:30;;;;;;;9.80;2.07;;;17.10;1.00;;;;;;5076465;28;20174;-88
2022/09/19 10:34:56;;;;;;;10.83;2.20;;;17.20;1.00;;;;;;5076020;28;20180;-89
2022/09/19 10:37:28;;;;;;;11.50;2.20;;;17.30;1.00;;;;;;5076112;28;20173;-87
2022/09/19 10:40:04;;;;;;;8.53;2.10;;;17.40;1.00;;;;;;5078552;28;20175;-92
2022/09/19 10:42:35;;;;;;;9.27;2.57;;;17.40;1.00;;;;;;5095312;28;20224;-87
2022/09/19 10:45:19;;;;;;;8.60;1.90;;;17.20;1.00;;;;;;5091884;28;20188;-88
2022/09/19 10:47:47;;;;;;;8.10;2.23;;;17.00;1.00;;;;;;5092918;28;20160;-87
2022/09/19 10:50:19;;;;;;;10.57;2.30;;;16.90;1.00;;;;;;5090103;28;20214;-86
2022/09/19 10:52:51;;;;;;;10.67;2.43;;;16.80;1.00;;;;;;5081673;28;20172;-85
2022/09/19 10:55:21;;;;;;;10.73;3.00;;;16.60;1.00;;;;;;5080169;28;20177;-91
2022/09/19 10:58:22;;;;;;;10.13;2.70;;;16.40;1.00;;;;;;5075497;28;20168;-87
2022/09/19 11:00:57;;;;;;;10.20;2.70;;;16.00;1.00;;;;;;5074755;28;20225;-88
2022/09/19 11:03:29;;;;;;;9.57;2.30;;;15.90;7.10;;;;;;5088514;28;20168;-91
2022/09/19 11:06:12;;;;;;;9.53;3.20;;;15.90;1.00;;;;;;5095827;28;20169;-90
2022/09/19 11:08:50;;;;;;;8.77;2.23;;;15.90;1.00;;;;;;5094927;28;20157;-86
2022/09/19 11:11:48;;;;;;;6.63;2.00;;;15.90;1.00;;;;;;5096532;28;20210;-87
2022/09/19 11:14:31;;;;;;;12.77;2.70;;;15.80;1.80;;;;;;5087581;28;20179;-88
2022/09/19 11:17:08;;;;;;;10.03;2.60;;;15.70;11.70;;;;;;5086785;28;20169;-87
2022/09/19 11:20:14;;;;;;;10.00;2.47;;;15.70;21.90;;;;;;5085333;28;20243;-85
2022/09/19 11:23:13;;;;;;;7.17;2.40;;;15.70;21.30;;;;;;5087825;28;20204;-86
2022/09/19 11:25:41;;;;;;;7.53;2.27;;;15.50;25.50;;;;;;5077264;28;20179;-86
2022/09/19 11:28:40;;;;;;;10.40;2.30;;;15.50;27.70;;;;;;5076168;28;20179;-87
2022/09/19 11:31:30;;;;;;;8.27;2.40;;;15.50;28.50;;;;;;5075116;28;20161;-87
2022/09/19 11:34:05;;;;;;;8.00;2.50;;;15.50;28.60;;;;;;5075233;28;20245;-87
2022/09/19 11:36:49;;;;;;;10.87;2.20;;;15.50;34.70;;;;;;5073866;28;20656;-87
2022/09/19 11:39:21;;;;;;;9.17;2.47;;;15.50;26.70;;;;;;5078025;28;20644;-87
2022/09/19 11:41:53;;;;;;;9.80;3.10;;;15.60;19.60;;;;;;5077801;28;20216;-87
2022/09/19 11:44:43;;;;;;;9.07;2.50;;;15.70;20.10;;;;;;5078539;28;20179;-88
2022/09/19 11:48:00;;;;;;;11.07;2.07;;;15.80;13.70;;;;;;5077797;28;20187;-86
2022/09/19 11:51:11;;;;;;;8.33;2.10;;;15.90;1.00;;;;;;5078247;28;20687;-88
2022/09/19 11:53:46;;;;;;;6.30;2.10;;;16.00;1.00;;;;;;5078200;28;20179;-89
2022/09/19 11:56:23;;;;;;;6.40;1.63;;;16.20;1.00;;;;;;5078635;28;20179;-88
2022/09/19 11:59:00;;;;;;;8.23;2.20;;;16.30;1.00;;;;;;5078939;28;20696;-86
2022/09/19 12:01:41;;;;;;;8.30;2.30;;;16.40;1.00;;;;;;5079888;28;20207;-87
2022/09/19 12:04:19;;;;;;;7.57;1.70;;;16.60;1.00;;;;;;5077447;28;20164;-87
2022/09/19 12:07:12;;;;;;;8.30;1.90;;;16.60;1.00;;;;;;5078201;28;20258;-87
2022/09/19 12:10:15;;;;;;;7.70;1.90;;;16.70;1.00;;;;;;5077495;28;20172;-87
2022/09/19 12:12:45;;;;;;;7.53;1.90;;;16.80;1.00;;;;;;5076971;28;20294;-87
2022/09/19 12:15:16;;;;;;;6.60;1.60;;;16.80;1.00;;;;;;5078668;28;20191;-87
2022/09/19 12:17:52;;;;;;;9.07;2.00;;;16.80;1.00;;;;;;5078761;28;20201;-88
2022/09/19 12:20:36;;;;;;;6.23;2.13;;;16.90;1.00;;;;;;5079012;28;20176;-87
2022/09/19 12:26:09;;;;;;;9.40;2.27;;;16.60;1.00;;;;;;5091549;28;20190;-85
2022/09/19 12:29:01;;;;;;;9.40;2.07;;;16.70;1.00;;;;;;5098376;28;20219;-87
2022/09/19 12:31:34;;;;;;;8.97;2.20;;;16.70;1.00;;;;;;5088548;28;20222;-86
2022/09/19 12:34:21;;;;;;;9.30;2.63;;;16.60;1.00;;;;;;5085239;28;20179;-87
2022/09/19 12:37:05;;;;;;;6.77;1.80;;;16.70;1.00;;;;;;5089242;28;20183;-86
2022/09/19 12:39:55;;;;;;;6.47;1.80;;;16.80;1.00;;;;;;5093614;28;20173;-86
2022/09/19 12:42:43;;;;;;;13.57;2.57;;;16.60;1.00;;;;;;5094552;28;20262;-86
2022/09/19 12:45:25;;;;;;;10.27;3.30;;;16.50;1.00;;;;;;5075658;28;20554;-83
2022/09/19 12:48:08;;;;;;;10.70;3.10;;;16.70;1.00;;;;;;5079904;28;20195;-84
2022/09/19 12:50:38;;;;;;;9.77;4.10;;;16.80;1.00;;;;;;5079265;28;20191;-85
2022/09/19 12:53:24;;;;;;;8.40;3.57;;;17.10;1.00;;;;;;5079751;28;20194;-83
2022/09/19 12:56:15;;;;;;;6.47;2.10;;;17.20;1.00;;;;;;5078418;28;20201;-83
2022/09/19 12:59:15;;;;;;;4.67;1.70;;;17.20;1.00;;;;;;5075610;28;20179;-86
2022/09/19 13:02:01;;;;;;;6.53;1.83;;;17.10;1.00;;;;;;5075253;28;20228;-86
2022/09/19 13:04:41;;;;;;;7.90;1.67;;;17.20;1.00;;;;;;5072570;28;20173;-86
2022/09/19 13:07:18;;;;;;;8.67;1.50;;;17.40;1.00;;;;;;5076044;28;20354;-86
2022/09/19 13:10:00;;;;;;;4.87;1.47;;;17.40;1.00;;;;;;5073507;28;20257;-87
2022/09/19 13:12:45;;;;;;;7.23;1.37;;;17.30;1.00;;;;;;5075653;28;20220;-86
2022/09/19 13:15:32;;;;;;;6.23;1.43;;;17.40;1.00;;;;;;5077173;28;20170;-86
2022/09/19 13:23:38;;;;;;;4.30;1.30;;;17.70;99.90;;;;;;5078412;28;20279;-84
2022/09/19 13:26:24;;;;;;;7.97;1.70;;;17.80;99.90;;;;;;5079477;28;20191;-87
2022/09/19 13:28:56;;;;;;;5.87;1.60;;;17.70;99.90;;;;;;5088902;28;20198;-86
2022/09/19 13:31:55;;;;;;;5.50;1.60;;;17.90;99.90;;;;;;5081625;28;20190;-86
2022/09/19 13:34:40;;;;;;;3.93;1.10;;;18.00;99.90;;;;;;5077696;28;20173;-85
2022/09/19 13:37:34;;;;;;;6.37;1.33;;;18.00;99.90;;;;;;5077898;28;20245;-86
2022/09/19 13:40:39;;;;;;;6.87;1.43;;;18.10;99.90;;;;;;5082659;28;20183;-86
2022/09/19 13:43:48;;;;;;;5.53;1.50;;;18.00;99.90;;;;;;5080291;28;20544;-85
2022/09/19 13:46:53;;;;;;;5.43;1.93;;;17.80;99.90;;;;;;5060924;28;20199;-87
2022/09/19 13:49:41;;;;;;;6.33;1.50;;;17.90;1.00;;;;;;5091317;28;20187;-86
2022/09/19 13:52:32;;;;;;;8.03;1.60;;;18.00;1.00;;;;;;5076049;28;20176;-87
2022/09/19 13:55:13;;;;;;;10.83;2.27;;;17.60;1.00;;;;;;5073474;28;20265;-85
2022/09/19 13:57:45;;;;;;;6.23;1.80;;;17.40;1.00;;;;;;5070446;28;20172;-87
2022/09/19 14:00:32;;;;;;;7.40;1.47;;;17.20;1.00;;;;;;5071007;28;20649;-87
2022/09/19 14:03:30;;;;;;;10.10;2.00;;;17.00;1.00;;;;;;5077965;28;20247;-85
2022/09/19 14:06:27;;;;;;;5.60;1.57;;;17.00;1.00;;;;;;5079644;28;20168;-85
2022/09/19 14:09:19;;;;;;;5.60;1.67;;;16.90;1.00;;;;;;5077834;28;20583;-86
2022/09/19 14:11:48;;;;;;;4.67;1.20;;;17.00;1.00;;;;;;5080692;28;20199;-87
2022/09/19 14:15:05;;;;;;;5.93;1.40;;;17.10;1.00;;;;;;5076866;28;20176;-89
2022/09/19 14:17:37;;;;;;;9.03;2.20;;;17.10;1.00;;;;;;5076193;28;20180;-86
2022/09/19 14:20:26;;;;;;;7.83;1.40;;;17.20;99.90;;;;;;5077165;28;21421;-85
2022/09/19 14:22:55;;;;;;;7.77;2.10;;;17.20;99.90;;;;;;5076752;28;20232;-85